Time;durP1;ratioP1;P1;durP2;ratioP2;P2;SDS_P1;SDS_P2;PMS_P1;PMS_P2;Temp;Humidity;BMP_temperature;BMP_pressure;BME280_temperature;BME280_humidity;BME280_pressure;Samples;Min_cycle;Max_cycle;Signal;HPM_P1;HPM_P2
2021/12/26 00:00:59;;;;;;;10.17;7.20;;;7.20;99.90;;;;;;5052591;28;20683;-85
2021/12/26 00:03:28;;;;;;;12.17;7.53;;;7.30;99.90;;;;;;5036007;28;20196;-75
2021/12/26 00:05:56;;;;;;;13.50;8.17;;;7.30;99.90;;;;;;5071057;28;20200;-75
2021/12/26 00:08:23;;;;;;;10.50;7.50;;;7.30;99.90;;;;;;5036810;28;20204;-85
2021/12/26 00:10:49;;;;;;;12.27;7.53;;;7.40;99.90;;;;;;5071312;28;20200;-85
2021/12/26 00:13:16;;;;;;;12.10;8.23;;;7.40;99.90;;;;;;5053793;28;20219;-86
2021/12/26 00:15:42;;;;;;;10.27;7.17;;;7.30;99.90;;;;;;5070934;28;20570;-75
2021/12/26 00:18:10;;;;;;;12.77;8.60;;;7.10;99.90;;;;;;5069937;28;20215;-85
2021/12/26 00:20:39;;;;;;;11.40;8.43;;;7.10;99.90;;;;;;5020826;28;20204;-85
2021/12/26 00:23:06;;;;;;;10.87;7.80;;;7.10;99.90;;;;;;5053001;28;20620;-86
2021/12/26 00:25:33;;;;;;;12.27;7.90;;;7.30;99.90;;;;;;5036058;28;20204;-76
2021/12/26 00:28:00;;;;;;;11.53;7.70;;;7.20;99.90;;;;;;5070084;28;20199;-76
2021/12/26 00:30:26;;;;;;;11.97;7.10;;;7.20;99.90;;;;;;5070243;28;20215;-84
2021/12/26 00:32:52;;;;;;;9.47;6.73;;;7.20;99.90;;;;;;5071926;28;20837;-76
2021/12/26 00:35:21;;;;;;;12.03;7.67;;;7.30;99.90;;;;;;5054080;28;20223;-85
2021/12/26 00:37:48;;;;;;;9.37;6.47;;;7.20;99.90;;;;;;5071743;28;20203;-76
2021/12/26 00:40:18;;;;;;;9.93;7.27;;;7.20;99.90;;;;;;5054096;28;20281;-76
2021/12/26 00:42:45;;;;;;;10.73;7.27;;;7.20;99.90;;;;;;5037376;28;20224;-85
2021/12/26 00:45:11;;;;;;;9.97;6.83;;;7.20;99.90;;;;;;5036374;28;20204;-76
2021/12/26 00:47:37;;;;;;;9.57;6.20;;;7.10;99.90;;;;;;5053083;28;20238;-84
2021/12/26 00:50:05;;;;;;;9.97;6.77;;;7.10;99.90;;;;;;5072083;28;20203;-75
2021/12/26 00:52:31;;;;;;;9.33;6.03;;;7.10;99.90;;;;;;5056456;28;20210;-76
2021/12/26 00:54:57;;;;;;;8.60;5.83;;;7.00;99.90;;;;;;5056881;28;20234;-76
2021/12/26 00:57:23;;;;;;;8.87;6.03;;;7.00;99.90;;;;;;5074887;28;20614;-84
2021/12/26 00:59:48;;;;;;;9.43;5.60;;;7.00;99.90;;;;;;5056104;28;20295;-76
2021/12/26 01:02:15;;;;;;;10.70;6.27;;;7.00;99.90;;;;;;5073645;28;20617;-77
2021/12/26 01:04:41;;;;;;;9.00;5.87;;;7.20;99.90;;;;;;5074076;28;20204;-76
2021/12/26 01:07:17;;;;;;;9.43;5.40;;;7.20;99.90;;;;;;5073877;28;20232;-76
2021/12/26 01:09:47;;;;;;;7.70;5.70;;;7.20;99.90;;;;;;5074586;28;20196;-75
2021/12/26 01:12:15;;;;;;;9.87;6.20;;;7.40;99.90;;;;;;5074315;28;20275;-82
2021/12/26 01:14:48;;;;;;;8.70;5.83;;;7.20;99.90;;;;;;5058437;28;20698;-75
2021/12/26 01:17:17;;;;;;;8.50;5.70;;;7.20;99.90;;;;;;5055810;28;20201;-75
2021/12/26 01:19:47;;;;;;;8.50;5.70;;;7.10;99.90;;;;;;5075148;28;20639;-77
2021/12/26 01:22:15;;;;;;;9.30;6.20;;;7.20;99.90;;;;;;5072721;28;20278;-85
2021/12/26 01:24:46;;;;;;;8.80;6.00;;;7.00;99.90;;;;;;5074431;28;20212;-85
2021/12/26 01:27:12;;;;;;;8.73;5.93;;;7.00;99.90;;;;;;5055810;28;20643;-85
2021/12/26 01:29:39;;;;;;;9.70;6.57;;;7.00;99.90;;;;;;5073691;28;20196;-76
2021/12/26 01:32:06;;;;;;;9.50;6.53;;;7.00;99.90;;;;;;5073491;28;20200;-75
2021/12/26 01:34:32;;;;;;;8.47;5.93;;;7.00;99.90;;;;;;5056648;28;20207;-78
2021/12/26 01:36:58;;;;;;;8.70;5.90;;;7.00;99.90;;;;;;5073171;28;20295;-85
2021/12/26 01:39:25;;;;;;;9.40;6.13;;;7.00;99.90;;;;;;5072160;28;20255;-76
2021/12/26 01:41:51;;;;;;;8.20;5.87;;;7.20;99.90;;;;;;5039805;28;20216;-75
2021/12/26 01:44:17;;;;;;;9.10;6.30;;;7.10;99.90;;;;;;5072026;28;20204;-84
2021/12/26 01:46:45;;;;;;;8.97;6.23;;;7.00;99.90;;;;;;5073455;28;20286;-75
2021/12/26 01:49:17;;;;;;;7.40;5.30;;;7.10;99.90;;;;;;5055503;28;20221;-83
2021/12/26 01:51:46;;;;;;;7.27;5.30;;;7.10;99.90;;;;;;5073093;28;20199;-86
2021/12/26 01:54:16;;;;;;;8.43;5.97;;;7.00;99.90;;;;;;5038428;28;20200;-75
2021/12/26 01:56:43;;;;;;;7.77;5.30;;;7.20;99.90;;;;;;5055723;28;20264;-84
2021/12/26 01:59:11;;;;;;;10.87;5.53;;;7.00;99.90;;;;;;5072937;28;20180;-86
2021/12/26 02:01:37;;;;;;;9.87;6.00;;;7.00;99.90;;;;;;5054631;28;20233;-74
2021/12/26 02:04:05;;;;;;;8.70;6.37;;;6.90;99.90;;;;;;5055993;28;20204;-86
2021/12/26 02:06:31;;;;;;;8.17;5.73;;;7.10;99.90;;;;;;5071170;28;20181;-74
2021/12/26 02:08:57;;;;;;;8.67;6.13;;;7.00;99.90;;;;;;5071846;28;20206;-86
2021/12/26 02:11:23;;;;;;;7.53;5.23;;;7.10;99.90;;;;;;5054957;28;20789;-74
2021/12/26 02:13:49;;;;;;;7.87;5.47;;;7.10;99.90;;;;;;5071255;28;20208;-80
2021/12/26 02:16:14;;;;;;;7.50;5.27;;;7.10;99.90;;;;;;5054245;28;20231;-84
2021/12/26 02:18:41;;;;;;;9.80;5.80;;;7.20;99.90;;;;;;5071776;28;20643;-85
2021/12/26 02:24:06;;;;;;;11.47;5.77;;;7.30;99.90;;;;;;5072183;28;20214;-75
2021/12/26 02:29:16;;;;;;;9.17;6.13;;;7.20;99.90;;;;;;5072195;28;20600;-83
2021/12/26 02:31:42;;;;;;;7.53;6.00;;;7.20;99.90;;;;;;5054765;28;20224;-86
2021/12/26 02:34:08;;;;;;;8.23;5.40;;;7.20;99.90;;;;;;5055038;28;20307;-84
2021/12/26 02:36:34;;;;;;;7.57;5.77;;;7.10;99.90;;;;;;5070677;28;20204;-84
2021/12/26 02:39:00;;;;;;;8.60;5.67;;;7.10;99.90;;;;;;5071735;28;20559;-84
2021/12/26 02:41:26;;;;;;;8.17;5.83;;;7.00;99.90;;;;;;5054749;28;20662;-74
2021/12/26 02:43:52;;;;;;;8.60;5.90;;;7.10;99.90;;;;;;5037670;28;20246;-75
2021/12/26 02:46:18;;;;;;;8.67;6.00;;;7.10;99.90;;;;;;5069826;28;20705;-83
2021/12/26 02:48:44;;;;;;;7.30;5.33;;;7.30;99.90;;;;;;5070935;28;20209;-74
2021/12/26 02:51:10;;;;;;;8.73;6.33;;;7.10;99.90;;;;;;5054539;28;20204;-80
2021/12/26 02:53:37;;;;;;;8.20;6.27;;;7.30;99.90;;;;;;5070763;28;20191;-75
2021/12/26 02:56:05;;;;;;;9.37;6.10;;;7.10;99.90;;;;;;5055674;28;20210;-83
2021/12/26 02:58:31;;;;;;;10.03;6.43;;;7.10;99.90;;;;;;5053776;28;20203;-84
2021/12/26 03:01:20;;;;;;;8.60;5.57;;;7.10;99.90;;;;;;5071560;28;20295;-86
2021/12/26 03:03:46;;;;;;;8.50;5.87;;;7.20;99.90;;;;;;5056941;28;20216;-75
2021/12/26 03:06:28;;;;;;;8.40;5.90;;;7.00;99.90;;;;;;5073084;28;20211;-85
2021/12/26 03:08:55;;;;;;;8.73;6.03;;;6.90;99.90;;;;;;5071176;28;20219;-78
2021/12/26 03:11:22;;;;;;;10.03;6.87;;;6.60;99.90;;;;;;5070710;28;20547;-75
2021/12/26 03:13:48;;;;;;;8.53;5.90;;;6.40;99.90;;;;;;5070658;28;20254;-84
2021/12/26 03:16:15;;;;;;;7.93;5.90;;;6.70;99.90;;;;;;5070958;28;20208;-76
2021/12/26 03:18:40;;;;;;;8.10;5.93;;;6.90;99.90;;;;;;5070869;28;20208;-77
2021/12/26 03:21:06;;;;;;;9.03;5.70;;;6.90;99.90;;;;;;5070915;28;20214;-74
2021/12/26 03:23:32;;;;;;;8.63;6.07;;;7.00;99.90;;;;;;5072487;28;20644;-85
2021/12/26 03:26:02;;;;;;;9.30;6.87;;;7.00;99.90;;;;;;5070800;28;20231;-76
2021/12/26 03:28:29;;;;;;;10.00;7.00;;;7.00;99.90;;;;;;5070763;28;20239;-76
2021/12/26 03:30:56;;;;;;;9.93;7.07;;;7.00;99.90;;;;;;5070533;28;20222;-75
2021/12/26 03:33:23;;;;;;;10.50;6.67;;;7.00;99.90;;;;;;5055184;28;20589;-85
2021/12/26 03:35:49;;;;;;;9.00;6.83;;;7.00;99.90;;;;;;5070635;28;20701;-76
2021/12/26 03:38:17;;;;;;;10.63;7.13;;;7.00;99.90;;;;;;5071913;28;20274;-77
2021/12/26 03:40:44;;;;;;;9.30;6.57;;;7.00;99.90;;;;;;5037430;28;20218;-74
2021/12/26 03:43:10;;;;;;;9.97;6.73;;;7.00;99.90;;;;;;5070095;28;20290;-75
2021/12/26 03:45:37;;;;;;;9.80;7.07;;;7.00;99.90;;;;;;5070674;28;20207;-85
2021/12/26 03:48:04;;;;;;;8.53;6.73;;;7.00;99.90;;;;;;5072010;28;20193;-82
2021/12/26 03:50:32;;;;;;;10.07;6.97;;;7.10;99.90;;;;;;5070409;28;20570;-76
2021/12/26 03:52:58;;;;;;;9.57;6.73;;;7.10;99.90;;;;;;5037346;28;20193;-75
2021/12/26 03:55:27;;;;;;;12.13;6.97;;;7.10;99.90;;;;;;5052938;28;20242;-80
2021/12/26 03:57:54;;;;;;;11.47;6.83;;;7.10;99.90;;;;;;5071445;28;20254;-85
2021/12/26 04:00:22;;;;;;;11.23;6.70;;;7.10;99.90;;;;;;5072494;28;20631;-74
2021/12/26 04:02:48;;;;;;;11.30;7.90;;;7.10;99.90;;;;;;5070183;28;20226;-76
2021/12/26 04:05:16;;;;;;;9.30;5.90;;;7.10;99.90;;;;;;5070181;28;20273;-84
2021/12/26 04:07:42;;;;;;;12.70;7.37;;;7.10;99.90;;;;;;5070025;28;20287;-76
2021/12/26 04:10:09;;;;;;;11.20;6.93;;;7.00;99.90;;;;;;5052957;28;20207;-76
2021/12/26 04:12:37;;;;;;;10.87;6.80;;;7.10;99.90;;;;;;5053469;28;20630;-84
2021/12/26 04:15:06;;;;;;;10.67;7.20;;;7.10;99.90;;;;;;5053572;28;20192;-84
2021/12/26 04:17:32;;;;;;;12.63;7.73;;;7.00;99.90;;;;;;5052972;28;20342;-76
2021/12/26 04:19:58;;;;;;;13.33;7.87;;;7.10;99.90;;;;;;5070688;28;20663;-82
2021/12/26 04:22:24;;;;;;;12.83;7.97;;;7.10;99.90;;;;;;5070374;28;20652;-84
2021/12/26 04:24:51;;;;;;;12.20;7.73;;;7.10;99.90;;;;;;5072719;28;20552;-85
2021/12/26 04:27:16;;;;;;;15.03;9.03;;;7.10;99.90;;;;;;5056858;28;20520;-85
2021/12/26 04:29:44;;;;;;;12.03;7.33;;;7.10;99.90;;;;;;5056997;28;20267;-84
2021/12/26 04:32:10;;;;;;;12.43;8.67;;;7.10;99.90;;;;;;5073385;28;20261;-82
2021/12/26 04:34:36;;;;;;;11.67;7.87;;;7.10;99.90;;;;;;5075181;28;20196;-86
2021/12/26 04:37:02;;;;;;;12.03;7.67;;;7.00;99.90;;;;;;5073799;28;20192;-85
2021/12/26 04:39:28;;;;;;;13.27;8.57;;;7.10;99.90;;;;;;5073393;28;20806;-85
2021/12/26 04:41:54;;;;;;;12.47;7.30;;;7.00;99.90;;;;;;5073076;28;20247;-77
2021/12/26 04:44:23;;;;;;;13.03;7.37;;;6.80;99.90;;;;;;5040487;28;20192;-85
2021/12/26 04:46:49;;;;;;;14.30;8.23;;;6.90;99.90;;;;;;5073205;28;20556;-85
2021/12/26 04:49:15;;;;;;;12.23;8.10;;;7.00;99.90;;;;;;5073335;28;20226;-85
2021/12/26 04:51:41;;;;;;;14.57;7.93;;;6.90;99.90;;;;;;5056772;28;20200;-76
2021/12/26 04:54:07;;;;;;;13.83;8.63;;;6.90;99.90;;;;;;5040236;28;20196;-84
2021/12/26 04:56:33;;;;;;;14.17;8.93;;;7.00;99.90;;;;;;5056208;28;20197;-81
2021/12/26 04:58:59;;;;;;;12.87;8.30;;;7.00;99.90;;;;;;5075336;28;20188;-76
2021/12/26 05:01:25;;;;;;;13.80;8.53;;;7.10;99.90;;;;;;5075151;28;20204;-85
2021/12/26 05:03:51;;;;;;;13.90;8.43;;;7.10;99.90;;;;;;5074522;28;20196;-84
2021/12/26 05:06:17;;;;;;;13.30;8.70;;;7.10;99.90;;;;;;5072771;28;20192;-85
2021/12/26 05:08:43;;;;;;;15.17;8.67;;;7.00;99.90;;;;;;5074982;28;20187;-76
2021/12/26 05:11:09;;;;;;;12.70;8.00;;;7.00;99.90;;;;;;5073295;28;20189;-85
2021/12/26 05:13:36;;;;;;;13.03;8.13;;;7.10;99.90;;;;;;5074691;28;20188;-85
2021/12/26 05:16:02;;;;;;;13.80;8.03;;;7.10;99.90;;;;;;5073891;28;20262;-84
2021/12/26 05:18:28;;;;;;;16.13;9.30;;;7.10;99.90;;;;;;5073270;28;20639;-76
2021/12/26 05:20:56;;;;;;;12.83;8.47;;;7.10;99.90;;;;;;5055756;28;20247;-84
2021/12/26 05:23:22;;;;;;;13.07;9.10;;;6.90;99.90;;;;;;5073136;28;20188;-85
2021/12/26 05:25:49;;;;;;;14.10;8.07;;;6.90;99.90;;;;;;5072492;28;20792;-86
2021/12/26 05:28:15;;;;;;;14.60;8.57;;;7.00;99.90;;;;;;5075111;28;20188;-83
2021/12/26 05:30:41;;;;;;;14.97;8.97;;;7.00;99.90;;;;;;5073542;28;20279;-76
2021/12/26 05:33:07;;;;;;;13.93;8.53;;;7.00;99.90;;;;;;5073990;28;20195;-75
2021/12/26 05:35:33;;;;;;;14.03;8.03;;;7.10;99.90;;;;;;5039292;28;20235;-75
2021/12/26 05:38:00;;;;;;;13.70;8.33;;;7.00;99.90;;;;;;5069398;28;20189;-77
2021/12/26 05:40:25;;;;;;;14.17;9.17;;;7.10;99.90;;;;;;5051711;28;20194;-76
2021/12/26 05:42:51;;;;;;;14.50;9.20;;;7.20;99.90;;;;;;5052761;28;20213;-83
2021/12/26 05:45:17;;;;;;;12.30;8.57;;;7.10;99.90;;;;;;5051505;28;20200;-84
2021/12/26 05:47:43;;;;;;;15.80;9.67;;;7.20;99.90;;;;;;5053619;28;20507;-76
2021/12/26 05:50:16;;;;;;;15.80;9.50;;;7.20;99.90;;;;;;5068673;28;20189;-83
2021/12/26 05:52:43;;;;;;;14.47;8.93;;;7.10;99.90;;;;;;5068714;28;20403;-76
2021/12/26 05:55:09;;;;;;;13.87;8.80;;;7.00;99.90;;;;;;5055339;28;20204;-77
2021/12/26 05:57:38;;;;;;;15.37;9.10;;;6.90;99.90;;;;;;5038639;28;20286;-85
2021/12/26 06:00:07;;;;;;;14.90;9.33;;;6.90;99.90;;;;;;5056275;28;20361;-76
2021/12/26 06:02:33;;;;;;;16.83;9.77;;;7.00;99.90;;;;;;5055467;28;20604;-75
2021/12/26 06:04:59;;;;;;;13.73;9.40;;;7.00;99.90;;;;;;5073056;28;20168;-76
2021/12/26 06:07:25;;;;;;;15.13;8.90;;;6.90;99.90;;;;;;5055461;28;20193;-77
2021/12/26 06:09:51;;;;;;;28.07;13.80;;;7.10;99.90;;;;;;5056119;28;20943;-86
2021/12/26 06:12:16;;;;;;;15.60;9.47;;;6.80;99.90;;;;;;5038694;28;20200;-86
2021/12/26 06:14:42;;;;;;;14.40;8.73;;;6.90;99.90;;;;;;5072107;28;20207;-84
2021/12/26 06:17:09;;;;;;;14.83;9.07;;;7.00;99.90;;;;;;5072132;28;20200;-83
2021/12/26 06:19:35;;;;;;;12.77;9.20;;;7.10;99.90;;;;;;5071246;28;20196;-85
2021/12/26 06:22:02;;;;;;;15.37;9.60;;;7.00;99.90;;;;;;5071481;28;20219;-86
2021/12/26 06:24:32;;;;;;;12.80;8.73;;;7.20;99.90;;;;;;5071772;28;20196;-76
2021/12/26 06:26:58;;;;;;;13.97;8.80;;;7.20;99.90;;;;;;5054898;28;20276;-85
2021/12/26 06:29:24;;;;;;;16.93;10.07;;;7.20;99.90;;;;;;5072122;28;20211;-85
2021/12/26 06:31:50;;;;;;;15.23;9.70;;;7.30;99.90;;;;;;5073095;28;20200;-86
2021/12/26 06:34:15;;;;;;;14.73;9.27;;;7.30;99.90;;;;;;5071917;28;20524;-76
2021/12/26 06:36:41;;;;;;;12.73;8.30;;;7.10;99.90;;;;;;5071372;28;20188;-87
2021/12/26 06:39:07;;;;;;;14.73;9.13;;;7.10;99.90;;;;;;5073386;28;20180;-76
2021/12/26 06:41:33;;;;;;;13.87;9.20;;;7.10;99.90;;;;;;5071373;28;20220;-86
2021/12/26 06:43:59;;;;;;;14.87;9.40;;;7.20;99.90;;;;;;5070856;28;20291;-85
2021/12/26 06:46:25;;;;;;;13.90;8.73;;;7.20;99.90;;;;;;5071431;28;20199;-75
2021/12/26 06:48:51;;;;;;;14.60;8.97;;;7.20;99.90;;;;;;5054758;28;20184;-83
2021/12/26 06:51:19;;;;;;;13.77;8.77;;;7.10;99.90;;;;;;5037996;28;20808;-75
2021/12/26 06:53:45;;;;;;;14.43;9.33;;;7.00;99.90;;;;;;5072632;28;20188;-82
2021/12/26 06:56:11;;;;;;;15.60;8.93;;;7.10;99.90;;;;;;5054802;28;20525;-76
2021/12/26 06:58:37;;;;;;;15.23;9.63;;;7.10;99.90;;;;;;5071251;28;20196;-86
2021/12/26 07:01:03;;;;;;;14.50;9.00;;;7.20;99.90;;;;;;5038145;28;20235;-84
2021/12/26 07:03:30;;;;;;;14.57;8.67;;;7.20;99.90;;;;;;5033653;28;20224;-82
2021/12/26 07:05:56;;;;;;;15.87;9.27;;;7.20;99.90;;;;;;5067107;28;20197;-84
2021/12/26 07:08:22;;;;;;;13.77;8.43;;;7.20;99.90;;;;;;5051902;28;20280;-85
2021/12/26 07:10:48;;;;;;;16.43;9.07;;;7.20;99.90;;;;;;5051877;28;20201;-85
2021/12/26 07:13:14;;;;;;;13.40;8.33;;;7.10;99.90;;;;;;5051843;28;20197;-82
2021/12/26 07:15:40;;;;;;;13.70;8.30;;;7.20;99.90;;;;;;5049979;28;20212;-76
2021/12/26 07:18:07;;;;;;;14.40;8.77;;;7.10;99.90;;;;;;5066317;28;20200;-83
2021/12/26 07:20:34;;;;;;;13.47;8.23;;;7.20;99.90;;;;;;5070428;28;20302;-76
2021/12/26 07:23:00;;;;;;;13.67;7.90;;;7.20;99.90;;;;;;5070358;28;20667;-77
2021/12/26 07:25:26;;;;;;;16.80;8.93;;;7.30;99.90;;;;;;5071810;28;20193;-84
2021/12/26 07:27:54;;;;;;;15.60;9.33;;;7.10;99.90;;;;;;5070550;28;20192;-83
2021/12/26 07:30:20;;;;;;;15.60;8.63;;;7.10;99.90;;;;;;5053905;28;20675;-75
2021/12/26 07:32:46;;;;;;;14.37;8.93;;;7.20;99.90;;;;;;5052886;28;20183;-82
2021/12/26 07:35:12;;;;;;;13.50;8.67;;;7.40;99.90;;;;;;5065817;28;20196;-77
2021/12/26 07:37:41;;;;;;;12.87;8.30;;;7.30;99.90;;;;;;5087026;28;20203;-83
2021/12/26 07:40:08;;;;;;;13.87;9.30;;;7.20;99.90;;;;;;5081820;28;20193;-76
2021/12/26 07:42:33;;;;;;;14.47;8.63;;;7.30;99.90;;;;;;5062557;28;20273;-82
2021/12/26 07:44:59;;;;;;;13.30;8.17;;;6.90;99.90;;;;;;5069114;28;20208;-75
2021/12/26 07:47:25;;;;;;;14.97;8.77;;;7.00;99.90;;;;;;5085844;28;20208;-83
2021/12/26 07:49:51;;;;;;;16.03;9.30;;;7.20;99.90;;;;;;5069189;28;20210;-77
2021/12/26 07:52:21;;;;;;;14.60;8.97;;;7.20;99.90;;;;;;5069974;28;20268;-75
2021/12/26 07:54:47;;;;;;;13.23;8.43;;;7.20;99.90;;;;;;5069585;28;20202;-85
2021/12/26 07:57:13;;;;;;;15.17;9.20;;;7.40;99.90;;;;;;5035199;28;20570;-85
2021/12/26 07:59:39;;;;;;;15.33;9.60;;;7.40;99.90;;;;;;5053678;28;20204;-84
2021/12/26 08:02:16;;;;;;;16.70;9.50;;;7.40;99.90;;;;;;5054323;28;20734;-83
2021/12/26 08:04:45;;;;;;;14.87;9.00;;;7.40;99.90;;;;;;5087327;28;20204;-77
2021/12/26 08:07:12;;;;;;;17.33;8.87;;;7.40;99.90;;;;;;5063529;28;20659;-83
2021/12/26 08:09:39;;;;;;;17.53;10.13;;;7.50;99.90;;;;;;5072499;28;20204;-76
2021/12/26 08:12:05;;;;;;;16.93;10.50;;;7.50;99.90;;;;;;5089183;28;20283;-88
2021/12/26 08:14:31;;;;;;;15.60;9.47;;;7.50;99.90;;;;;;5073684;28;20257;-76
2021/12/26 08:16:57;;;;;;;16.93;9.67;;;7.40;99.90;;;;;;5055461;28;20193;-76
2021/12/26 08:19:23;;;;;;;15.90;9.53;;;7.40;99.90;;;;;;5074621;28;20212;-85
2021/12/26 08:21:52;;;;;;;18.33;9.60;;;7.40;99.90;;;;;;5071800;28;20299;-84
2021/12/26 08:24:19;;;;;;;15.87;9.53;;;7.40;99.90;;;;;;5072266;28;20294;-76
2021/12/26 08:26:51;;;;;;;15.40;9.57;;;7.40;99.90;;;;;;5071383;28;20656;-80
2021/12/26 08:29:20;;;;;;;17.10;10.03;;;7.40;99.90;;;;;;5073547;28;20306;-77
2021/12/26 08:31:49;;;;;;;16.77;10.20;;;7.40;99.90;;;;;;5074125;28;20558;-78
2021/12/26 08:34:20;;;;;;;15.13;9.27;;;7.40;99.90;;;;;;5055105;28;20585;-84
2021/12/26 08:36:58;;;;;;;15.80;9.60;;;7.50;99.90;;;;;;5088475;28;20195;-74
2021/12/26 08:39:26;;;;;;;18.97;10.37;;;7.50;99.90;;;;;;5088904;28;20204;-85
2021/12/26 08:41:52;;;;;;;17.33;10.13;;;7.50;99.90;;;;;;5088837;28;20710;-84
2021/12/26 08:44:18;;;;;;;16.43;9.47;;;7.40;99.90;;;;;;5072296;28;20695;-76
2021/12/26 08:46:45;;;;;;;19.77;10.53;;;7.40;99.90;;;;;;5071401;28;20204;-76
2021/12/26 08:49:11;;;;;;;15.83;10.03;;;7.60;99.90;;;;;;5071296;28;20196;-76
2021/12/26 08:51:38;;;;;;;17.33;10.33;;;7.50;99.90;;;;;;5072200;28;20211;-76
2021/12/26 08:54:04;;;;;;;17.97;10.10;;;7.30;99.90;;;;;;5062525;28;20216;-83
2021/12/26 08:56:30;;;;;;;15.97;10.10;;;7.50;99.90;;;;;;5071355;28;20208;-85
2021/12/26 08:58:56;;;;;;;16.27;9.20;;;7.50;99.90;;;;;;5054723;28;20208;-83
2021/12/26 09:01:22;;;;;;;15.93;9.97;;;7.50;99.90;;;;;;5073284;28;20212;-85
2021/12/26 09:03:49;;;;;;;14.97;10.30;;;7.60;99.90;;;;;;5088149;28;20204;-82
2021/12/26 09:06:15;;;;;;;19.33;9.77;;;7.60;99.90;;;;;;5073017;28;20566;-75
2021/12/26 09:08:41;;;;;;;18.97;11.27;;;7.70;99.90;;;;;;5072920;28;20251;-84
2021/12/26 09:11:06;;;;;;;15.80;9.70;;;7.80;99.90;;;;;;5054560;28;20223;-84
2021/12/26 09:13:35;;;;;;;17.90;10.00;;;7.70;99.90;;;;;;5071874;28;20206;-83
2021/12/26 09:16:02;;;;;;;20.47;11.10;;;7.40;99.90;;;;;;5071052;28;20204;-81
2021/12/26 09:18:29;;;;;;;15.83;10.17;;;7.70;99.90;;;;;;5072100;28;20204;-83
2021/12/26 09:20:54;;;;;;;15.07;10.23;;;7.80;99.90;;;;;;5088604;28;21542;-84
2021/12/26 09:23:20;;;;;;;16.43;10.47;;;7.80;99.90;;;;;;5069750;28;20235;-84
2021/12/26 09:25:46;;;;;;;15.07;9.33;;;7.80;99.90;;;;;;5053924;28;20291;-84
2021/12/26 09:28:12;;;;;;;16.93;10.17;;;7.50;99.90;;;;;;5086685;28;20306;-76
2021/12/26 09:30:38;;;;;;;17.37;10.87;;;7.50;99.90;;;;;;5070576;28;20200;-76
2021/12/26 09:33:04;;;;;;;15.63;9.77;;;7.30;99.90;;;;;;5068102;28;20212;-85
2021/12/26 09:35:31;;;;;;;16.17;10.70;;;7.30;99.90;;;;;;5072073;28;20201;-75
2021/12/26 09:37:57;;;;;;;16.10;10.60;;;7.60;99.90;;;;;;5087686;28;20238;-87
2021/12/26 09:40:23;;;;;;;15.53;9.87;;;7.80;99.90;;;;;;5073354;28;20275;-84
2021/12/26 09:42:49;;;;;;;16.53;10.83;;;8.00;99.90;;;;;;5071771;28;20230;-77
2021/12/26 09:45:16;;;;;;;17.17;10.50;;;8.00;99.90;;;;;;5036788;28;20258;-85
2021/12/26 09:47:43;;;;;;;15.47;10.10;;;8.00;99.90;;;;;;5070592;28;20223;-83
2021/12/26 09:50:12;;;;;;;16.47;10.87;;;8.10;99.90;;;;;;5070342;28;20586;-85
2021/12/26 09:52:44;;;;;;;16.37;10.53;;;8.20;99.90;;;;;;5050844;28;20200;-75
2021/12/26 09:55:11;;;;;;;15.83;9.73;;;8.20;99.90;;;;;;5053922;28;20209;-75
2021/12/26 09:57:38;;;;;;;19.00;10.87;;;8.20;99.90;;;;;;5082216;28;20563;-79
2021/12/26 10:00:20;;;;;;;17.43;10.53;;;8.20;99.90;;;;;;5069542;28;20291;-75
2021/12/26 10:02:46;;;;;;;18.67;11.03;;;8.20;99.90;;;;;;5071757;28;20211;-83
2021/12/26 10:05:13;;;;;;;16.53;9.90;;;8.10;99.90;;;;;;5071367;28;20554;-79
2021/12/26 10:07:39;;;;;;;15.27;9.27;;;8.10;99.90;;;;;;5076173;28;20211;-76
2021/12/26 10:10:07;;;;;;;18.80;11.37;;;8.20;99.90;;;;;;5072969;28;20539;-75
2021/12/26 10:12:41;;;;;;;20.23;10.83;;;8.20;99.90;;;;;;5070859;28;20200;-79
2021/12/26 10:15:07;;;;;;;16.00;10.07;;;8.20;99.90;;;;;;5070232;28;20266;-81
2021/12/26 10:17:33;;;;;;;16.10;10.10;;;8.20;99.90;;;;;;5070457;28;20269;-82
2021/12/26 10:20:06;;;;;;;19.67;10.87;;;8.20;99.90;;;;;;5086510;28;20686;-81
2021/12/26 10:22:32;;;;;;;17.50;11.00;;;8.40;99.90;;;;;;5068090;28;20228;-83
2021/12/26 10:24:58;;;;;;;17.53;10.10;;;8.40;99.90;;;;;;5070594;28;20200;-83
2021/12/26 10:27:31;;;;;;;15.17;9.37;;;8.50;99.90;;;;;;5070506;28;20208;-74
2021/12/26 10:29:59;;;;;;;15.47;10.13;;;8.50;99.90;;;;;;5071040;28;20208;-76
2021/12/26 10:32:37;;;;;;;16.57;10.90;;;8.60;99.90;;;;;;5054693;28;20208;-84
2021/12/26 10:35:07;;;;;;;15.67;9.27;;;8.40;99.90;;;;;;5070924;28;20188;-84
2021/12/26 10:37:36;;;;;;;15.43;9.27;;;8.60;99.90;;;;;;5070691;28;20273;-83
2021/12/26 10:40:10;;;;;;;14.93;9.17;;;8.60;99.90;;;;;;5072820;28;20200;-84
2021/12/26 10:42:40;;;;;;;13.30;9.03;;;8.60;99.90;;;;;;5070836;28;20216;-84
2021/12/26 10:45:11;;;;;;;14.27;9.60;;;8.50;99.90;;;;;;5087681;28;20211;-75
2021/12/26 10:47:39;;;;;;;14.27;8.30;;;8.40;99.90;;;;;;5070722;28;20200;-85
2021/12/26 10:50:14;;;;;;;14.27;10.17;;;8.60;99.90;;;;;;5053830;28;20204;-75
2021/12/26 10:52:59;;;;;;;12.13;8.07;;;8.70;99.90;;;;;;5038207;28;20196;-81
2021/12/26 10:55:39;;;;;;;13.20;8.40;;;8.70;99.90;;;;;;5071303;28;20184;-84
2021/12/26 10:58:14;;;;;;;14.57;8.37;;;8.80;99.90;;;;;;5070933;28;20210;-75
2021/12/26 11:00:42;;;;;;;12.67;8.17;;;8.90;99.90;;;;;;5071831;28;20270;-80
2021/12/26 11:03:11;;;;;;;12.17;8.27;;;8.80;99.90;;;;;;5071083;28;20300;-83
2021/12/26 11:05:46;;;;;;;11.40;8.17;;;8.80;99.90;;;;;;5070800;28;20207;-75
2021/12/26 11:08:14;;;;;;;12.50;7.83;;;8.80;99.90;;;;;;5070452;28;20557;-75
2021/12/26 11:10:45;;;;;;;12.50;8.00;;;8.80;99.90;;;;;;5071999;28;20220;-84
2021/12/26 11:13:20;;;;;;;11.90;7.60;;;8.90;99.90;;;;;;5070320;28;20200;-84
2021/12/26 11:15:47;;;;;;;12.07;7.47;;;9.00;99.90;;;;;;5070000;28;20214;-78
2021/12/26 11:18:18;;;;;;;10.80;7.07;;;9.00;99.90;;;;;;5070517;28;20176;-84
2021/12/26 11:20:50;;;;;;;9.60;6.87;;;9.00;99.90;;;;;;5069834;28;20196;-74
2021/12/26 11:23:22;;;;;;;10.90;7.37;;;9.10;99.90;;;;;;5069788;28;20208;-75
2021/12/26 11:25:52;;;;;;;9.07;6.53;;;9.10;99.90;;;;;;5035736;28;20207;-74
2021/12/26 11:28:26;;;;;;;8.70;6.30;;;9.20;99.90;;;;;;5068875;28;20204;-83
2021/12/26 11:30:54;;;;;;;9.67;6.33;;;9.20;99.90;;;;;;5069122;28;20196;-83
2021/12/26 11:33:20;;;;;;;10.57;6.67;;;9.30;99.90;;;;;;5035274;28;20361;-84
2021/12/26 11:35:49;;;;;;;10.77;7.33;;;9.40;99.90;;;;;;5069960;28;20607;-84
2021/12/26 11:38:19;;;;;;;7.43;5.30;;;9.40;99.90;;;;;;5068928;28;20203;-82
2021/12/26 11:40:47;;;;;;;10.07;6.50;;;9.40;99.90;;;;;;5069932;28;20200;-83
2021/12/26 11:43:57;;;;;;;7.93;5.90;;;9.40;99.90;;;;;;5067869;28;20224;-76
2021/12/26 11:46:29;;;;;;;8.20;5.83;;;9.50;99.90;;;;;;5049576;28;20617;-75
2021/12/26 11:49:10;;;;;;;7.37;5.40;;;9.50;99.90;;;;;;5068420;28;20270;-79
2021/12/26 11:51:47;;;;;;;7.33;5.43;;;9.40;99.90;;;;;;5068874;28;20184;-82
2021/12/26 11:54:50;;;;;;;6.63;5.43;;;9.50;99.90;;;;;;5069337;28;20249;-76
2021/12/26 11:57:44;;;;;;;6.83;5.07;;;9.50;99.90;;;;;;5069605;28;20203;-84
2021/12/26 12:00:17;;;;;;;6.80;5.13;;;9.60;99.90;;;;;;5068644;28;20667;-84
2021/12/26 12:02:47;;;;;;;7.17;4.93;;;9.60;99.90;;;;;;5051451;28;20262;-75
2021/12/26 12:05:36;;;;;;;7.03;5.27;;;9.50;99.90;;;;;;5069469;28;20178;-81
2021/12/26 12:08:13;;;;;;;8.30;5.23;;;9.50;99.90;;;;;;5067996;28;20196;-84
2021/12/26 12:10:48;;;;;;;6.60;5.33;;;9.60;99.90;;;;;;5052081;28;20505;-75
2021/12/26 12:13:23;;;;;;;8.03;5.30;;;9.60;99.90;;;;;;5051648;28;20211;-83
2021/12/26 12:16:00;;;;;;;6.37;5.07;;;9.60;99.90;;;;;;5069272;28;20196;-83
2021/12/26 12:18:31;;;;;;;7.80;5.70;;;9.60;99.90;;;;;;5069203;28;20313;-83
2021/12/26 12:21:17;;;;;;;8.77;6.13;;;9.70;99.90;;;;;;5050938;28;20187;-77
2021/12/26 12:24:16;;;;;;;9.27;6.17;;;9.70;99.90;;;;;;5069448;28;20203;-83
2021/12/26 12:27:08;;;;;;;9.43;6.03;;;9.70;99.90;;;;;;5067825;28;20238;-84
2021/12/26 12:29:50;;;;;;;7.10;5.33;;;9.60;99.90;;;;;;5068092;28;20739;-76
2021/12/26 12:32:27;;;;;;;7.27;5.40;;;9.60;99.90;;;;;;5068693;28;20200;-75
2021/12/26 12:35:05;;;;;;;6.47;5.20;;;9.60;99.90;;;;;;5068117;28;20188;-74
2021/12/26 12:37:43;;;;;;;6.20;5.23;;;9.60;99.90;;;;;;5070157;28;20198;-76
2021/12/26 12:40:08;;;;;;;6.67;5.00;;;9.60;99.90;;;;;;5069504;28;20196;-84
2021/12/26 12:42:35;;;;;;;7.10;5.07;;;9.40;99.90;;;;;;5069165;28;20246;-76
2021/12/26 12:45:01;;;;;;;7.23;4.83;;;9.60;99.90;;;;;;5051714;28;20231;-75
2021/12/26 12:47:29;;;;;;;7.47;5.13;;;9.70;99.90;;;;;;5071704;28;20200;-84
2021/12/26 12:50:01;;;;;;;7.60;5.30;;;9.80;99.90;;;;;;5071340;28;20710;-76
2021/12/26 12:52:44;;;;;;;7.63;4.80;;;9.90;99.90;;;;;;5071398;28;20271;-82
2021/12/26 12:55:12;;;;;;;6.97;5.97;;;9.90;99.90;;;;;;5070931;28;20315;-82
2021/12/26 12:57:44;;;;;;;7.50;5.47;;;9.80;99.90;;;;;;5072523;28;20287;-82
2021/12/26 13:00:25;;;;;;;8.10;5.00;;;9.90;99.90;;;;;;5055470;28;20666;-76